CA-0296 weather

CLOSED Kencor Airport
Priddis, Alberta, Canada

Public forecast

Using degrees Celsius for public forecast. Weather courtesy of forecast.io.

Closest aviation weather report (METAR) to Kencor Airport

Closest report is Calgary / Springbank Airport, 11.9 nm (22.0 km) NNW. Retrieved 2020/02/19 21:00 UTC (54 minutes ago):

CYBW 192100Z AUTO 00000KT 9SM CLR M03/M13 A3018 RMK SLP307

Closest aviation forecast (TAF) to Kencor Airport

Closest forecast is Calgary / Springbank Airport, 11.9 nm (22.0 km) NNW. Retrieved 2020/02/19 18:00 UTC (4 hours ago):

TAF CYBW 191740Z 1918/2005 28005KT P6SM SKC BECMG 1922/1924 16005KT BECMG 2002/2004 28005KT RMK FCST BASED ON AUTO OBS NXT FCST BY 200000Z